sensor_id;sensor_type;location;lat;lon;timestamp;P1;durP1;ratioP1;P2;durP2;ratioP2
30888;SDS011;51092;50.874;7.024;2023-12-28T00:00:57;2.85;;;1.67;;
30888;SDS011;51092;50.874;7.024;2023-12-28T00:01:59;2.78;;;1.52;;
30888;SDS011;51092;50.874;7.024;2023-12-28T00:03:01;3.58;;;1.60;;
30888;SDS011;51092;50.874;7.024;2023-12-28T00:04:03;3.90;;;1.67;;
30888;SDS011;51092;50.874;7.024;2023-12-28T00:05:05;2.92;;;1.80;;
30888;SDS011;51092;50.874;7.024;2023-12-28T00:06:08;3.60;;;1.90;;
30888;SDS011;51092;50.874;7.024;2023-12-28T00:07:10;5.13;;;1.67;;
30888;SDS011;51092;50.874;7.024;2023-12-28T00:08:14;4.32;;;1.70;;
30888;SDS011;51092;50.874;7.024;2023-12-28T00:09:15;2.72;;;2.00;;
30888;SDS011;51092;50.874;7.024;2023-12-28T00:10:17;4.90;;;1.73;;
30888;SDS011;51092;50.874;7.024;2023-12-28T00:11:19;2.30;;;1.60;;
30888;SDS011;51092;50.874;7.024;2023-12-28T00:12:21;2.17;;;1.70;;
30888;SDS011;51092;50.874;7.024;2023-12-28T00:13:25;4.07;;;1.90;;
30888;SDS011;51092;50.874;7.024;2023-12-28T00:14:27;2.80;;;1.80;;
30888;SDS011;51092;50.874;7.024;2023-12-28T00:15:29;3.60;;;1.55;;
30888;SDS011;51092;50.874;7.024;2023-12-28T00:16:31;3.38;;;1.70;;
30888;SDS011;51092;50.874;7.024;2023-12-28T00:17:33;2.58;;;1.70;;
30888;SDS011;51092;50.874;7.024;2023-12-28T00:18:35;4.23;;;1.90;;
30888;SDS011;51092;50.874;7.024;2023-12-28T00:19:37;4.32;;;1.60;;
30888;SDS011;51092;50.874;7.024;2023-12-28T00:20:39;3.50;;;1.70;;
30888;SDS011;51092;50.874;7.024;2023-12-28T00:21:41;4.10;;;2.10;;
30888;SDS011;51092;50.874;7.024;2023-12-28T00:22:43;2.53;;;1.73;;
30888;SDS011;51092;50.874;7.024;2023-12-28T00:23:45;3.67;;;1.80;;
30888;SDS011;51092;50.874;7.024;2023-12-28T00:24:50;3.40;;;1.80;;
30888;SDS011;51092;50.874;7.024;2023-12-28T00:25:51;3.13;;;1.80;;
30888;SDS011;51092;50.874;7.024;2023-12-28T00:26:53;2.78;;;1.77;;
30888;SDS011;51092;50.874;7.024;2023-12-28T00:27:55;2.53;;;1.52;;
30888;SDS011;51092;50.874;7.024;2023-12-28T00:28:59;2.92;;;2.00;;
30888;SDS011;51092;50.874;7.024;2023-12-28T00:30:00;2.55;;;1.75;;
30888;SDS011;51092;50.874;7.024;2023-12-28T00:31:03;3.45;;;1.90;;
30888;SDS011;51092;50.874;7.024;2023-12-28T00:32:05;2.88;;;1.67;;
30888;SDS011;51092;50.874;7.024;2023-12-28T00:33:07;5.18;;;2.15;;
30888;SDS011;51092;50.874;7.024;2023-12-28T00:34:09;3.20;;;1.85;;
30888;SDS011;51092;50.874;7.024;2023-12-28T00:35:11;3.85;;;1.80;;
30888;SDS011;51092;50.874;7.024;2023-12-28T00:36:13;5.20;;;1.90;;
30888;SDS011;51092;50.874;7.024;2023-12-28T00:37:16;3.20;;;1.88;;
30888;SDS011;51092;50.874;7.024;2023-12-28T00:38:17;3.58;;;2.10;;
30888;SDS011;51092;50.874;7.024;2023-12-28T00:39:19;3.30;;;1.85;;
30888;SDS011;51092;50.874;7.024;2023-12-28T00:40:21;4.28;;;1.88;;
30888;SDS011;51092;50.874;7.024;2023-12-28T00:41:22;3.22;;;2.08;;
30888;SDS011;51092;50.874;7.024;2023-12-28T00:42:25;4.72;;;1.80;;
30888;SDS011;51092;50.874;7.024;2023-12-28T00:43:26;3.30;;;2.00;;
30888;SDS011;51092;50.874;7.024;2023-12-28T00:44:30;3.83;;;1.73;;
30888;SDS011;51092;50.874;7.024;2023-12-28T00:45:31;4.38;;;1.90;;
30888;SDS011;51092;50.874;7.024;2023-12-28T00:46:34;3.63;;;1.80;;
30888;SDS011;51092;50.874;7.024;2023-12-28T00:47:35;2.53;;;1.70;;
30888;SDS011;51092;50.874;7.024;2023-12-28T00:48:38;3.70;;;1.70;;
30888;SDS011;51092;50.874;7.024;2023-12-28T00:49:39;1.95;;;1.58;;
30888;SDS011;51092;50.874;7.024;2023-12-28T00:50:42;2.67;;;1.95;;
30888;SDS011;51092;50.874;7.024;2023-12-28T00:51:43;2.67;;;1.53;;
30888;SDS011;51092;50.874;7.024;2023-12-28T00:52:46;2.95;;;1.73;;
30888;SDS011;51092;50.874;7.024;2023-12-28T00:53:47;3.85;;;1.70;;
30888;SDS011;51092;50.874;7.024;2023-12-28T00:54:48;3.15;;;1.80;;
30888;SDS011;51092;50.874;7.024;2023-12-28T00:55:51;2.47;;;1.90;;
30888;SDS011;51092;50.874;7.024;2023-12-28T00:56:52;3.45;;;1.70;;
30888;SDS011;51092;50.874;7.024;2023-12-28T00:57:55;2.95;;;1.48;;
30888;SDS011;51092;50.874;7.024;2023-12-28T00:58:56;3.70;;;1.73;;
30888;SDS011;51092;50.874;7.024;2023-12-28T01:00:00;2.80;;;1.65;;
30888;SDS011;51092;50.874;7.024;2023-12-28T01:01:02;3.77;;;1.77;;
30888;SDS011;51092;50.874;7.024;2023-12-28T01:02:04;3.33;;;1.80;;
30888;SDS011;51092;50.874;7.024;2023-12-28T01:03:06;3.72;;;1.80;;
30888;SDS011;51092;50.874;7.024;2023-12-28T01:04:08;4.25;;;1.40;;
30888;SDS011;51092;50.874;7.024;2023-12-28T01:05:10;2.58;;;1.38;;
30888;SDS011;51092;50.874;7.024;2023-12-28T01:06:11;2.05;;;1.65;;
30888;SDS011;51092;50.874;7.024;2023-12-28T01:07:14;2.85;;;1.55;;
30888;SDS011;51092;50.874;7.024;2023-12-28T01:08:15;1.83;;;1.33;;
30888;SDS011;51092;50.874;7.024;2023-12-28T01:09:18;2.35;;;1.70;;
30888;SDS011;51092;50.874;7.024;2023-12-28T01:10:19;1.85;;;1.40;;
30888;SDS011;51092;50.874;7.024;2023-12-28T01:11:22;2.20;;;1.60;;
30888;SDS011;51092;50.874;7.024;2023-12-28T01:12:24;2.08;;;1.42;;
30888;SDS011;51092;50.874;7.024;2023-12-28T01:13:27;2.67;;;1.77;;
30888;SDS011;51092;50.874;7.024;2023-12-28T01:14:28;2.25;;;1.30;;
30888;SDS011;51092;50.874;7.024;2023-12-28T01:15:32;4.65;;;1.90;;
30888;SDS011;51092;50.874;7.024;2023-12-28T01:16:34;2.20;;;1.33;;
30888;SDS011;51092;50.874;7.024;2023-12-28T01:17:37;2.23;;;1.33;;
30888;SDS011;51092;50.874;7.024;2023-12-28T01:18:38;4.07;;;1.60;;
30888;SDS011;51092;50.874;7.024;2023-12-28T01:19:41;2.08;;;1.30;;
30888;SDS011;51092;50.874;7.024;2023-12-28T01:20:42;2.67;;;1.45;;
30888;SDS011;51092;50.874;7.024;2023-12-28T01:21:45;1.73;;;1.23;;
30888;SDS011;51092;50.874;7.024;2023-12-28T01:22:46;1.67;;;1.25;;
30888;SDS011;51092;50.874;7.024;2023-12-28T01:23:50;2.13;;;1.40;;
30888;SDS011;51092;50.874;7.024;2023-12-28T01:24:52;1.80;;;1.23;;
30888;SDS011;51092;50.874;7.024;2023-12-28T01:25:54;1.40;;;1.30;;
30888;SDS011;51092;50.874;7.024;2023-12-28T01:26:56;2.78;;;1.30;;
30888;SDS011;51092;50.874;7.024;2023-12-28T01:27:59;1.75;;;1.10;;
30888;SDS011;51092;50.874;7.024;2023-12-28T01:29:00;2.10;;;1.38;;
30888;SDS011;51092;50.874;7.024;2023-12-28T01:30:04;1.55;;;1.23;;
30888;SDS011;51092;50.874;7.024;2023-12-28T01:31:08;1.73;;;1.20;;
30888;SDS011;51092;50.874;7.024;2023-12-28T01:32:10;3.30;;;1.30;;
30888;SDS011;51092;50.874;7.024;2023-12-28T01:33:12;1.60;;;1.25;;
30888;SDS011;51092;50.874;7.024;2023-12-28T01:34:14;2.17;;;1.30;;
30888;SDS011;51092;50.874;7.024;2023-12-28T01:35:16;1.52;;;1.15;;
30888;SDS011;51092;50.874;7.024;2023-12-28T01:36:18;2.13;;;1.40;;
30888;SDS011;51092;50.874;7.024;2023-12-28T01:37:21;2.05;;;1.35;;
30888;SDS011;51092;50.874;7.024;2023-12-28T01:38:23;1.95;;;1.33;;
30888;SDS011;51092;50.874;7.024;2023-12-28T01:39:25;1.52;;;1.10;;
30888;SDS011;51092;50.874;7.024;2023-12-28T01:40:27;1.48;;;1.00;;
30888;SDS011;51092;50.874;7.024;2023-12-28T01:41:29;1.98;;;1.10;;
30888;SDS011;51092;50.874;7.024;2023-12-28T01:42:31;1.27;;;1.00;;
30888;SDS011;51092;50.874;7.024;2023-12-28T01:43:33;1.65;;;1.00;;
30888;SDS011;51092;50.874;7.024;2023-12-28T01:44:35;1.77;;;1.00;;
30888;SDS011;51092;50.874;7.024;2023-12-28T01:45:36;1.50;;;1.00;;
30888;SDS011;51092;50.874;7.024;2023-12-28T01:46:40;3.80;;;1.25;;
30888;SDS011;51092;50.874;7.024;2023-12-28T01:47:42;2.20;;;0.90;;
30888;SDS011;51092;50.874;7.024;2023-12-28T01:48:46;1.52;;;1.10;;
30888;SDS011;51092;50.874;7.024;2023-12-28T01:49:50;2.25;;;1.10;;
30888;SDS011;51092;50.874;7.024;2023-12-28T01:50:53;1.88;;;1.20;;
30888;SDS011;51092;50.874;7.024;2023-12-28T01:51:55;1.05;;;0.90;;
30888;SDS011;51092;50.874;7.024;2023-12-28T01:52:56;1.88;;;1.10;;
30888;SDS011;51092;50.874;7.024;2023-12-28T01:54:02;1.65;;;1.10;;
30888;SDS011;51092;50.874;7.024;2023-12-28T01:55:04;2.58;;;0.90;;
30888;SDS011;51092;50.874;7.024;2023-12-28T01:56:07;1.55;;;1.00;;
30888;SDS011;51092;50.874;7.024;2023-12-28T01:57:10;1.00;;;0.75;;
30888;SDS011;51092;50.874;7.024;2023-12-28T01:58:13;1.00;;;0.80;;
30888;SDS011;51092;50.874;7.024;2023-12-28T01:59:15;1.73;;;1.00;;
30888;SDS011;51092;50.874;7.024;2023-12-28T02:00:19;1.10;;;1.00;;
30888;SDS011;51092;50.874;7.024;2023-12-28T02:01:23;1.27;;;0.93;;
30888;SDS011;51092;50.874;7.024;2023-12-28T02:02:28;1.30;;;0.82;;
30888;SDS011;51092;50.874;7.024;2023-12-28T02:03:32;1.10;;;0.90;;
30888;SDS011;51092;50.874;7.024;2023-12-28T02:04:34;1.58;;;0.80;;
30888;SDS011;51092;50.874;7.024;2023-12-28T02:05:37;1.85;;;0.80;;
30888;SDS011;51092;50.874;7.024;2023-12-28T02:06:39;0.90;;;0.90;;
30888;SDS011;51092;50.874;7.024;2023-12-28T02:07:40;1.10;;;0.77;;
30888;SDS011;51092;50.874;7.024;2023-12-28T02:08:43;1.33;;;0.88;;
30888;SDS011;51092;50.874;7.024;2023-12-28T02:09:44;0.95;;;0.90;;
30888;SDS011;51092;50.874;7.024;2023-12-28T02:10:47;1.80;;;0.90;;
30888;SDS011;51092;50.874;7.024;2023-12-28T02:11:48;1.02;;;0.73;;
30888;SDS011;51092;50.874;7.024;2023-12-28T02:12:51;1.40;;;0.90;;
30888;SDS011;51092;50.874;7.024;2023-12-28T02:13:53;1.27;;;0.90;;
30888;SDS011;51092;50.874;7.024;2023-12-28T02:14:56;1.27;;;0.90;;
30888;SDS011;51092;50.874;7.024;2023-12-28T02:15:58;1.10;;;0.85;;
30888;SDS011;51092;50.874;7.024;2023-12-28T02:17:06;1.23;;;0.90;;
30888;SDS011;51092;50.874;7.024;2023-12-28T02:18:16;0.60;;;0.60;;
30888;SDS011;51092;50.874;7.024;2023-12-28T02:19:25;1.05;;;0.93;;
30888;SDS011;51092;50.874;7.024;2023-12-28T02:20:32;1.05;;;0.80;;
30888;SDS011;51092;50.874;7.024;2023-12-28T02:21:36;1.70;;;0.77;;
30888;SDS011;51092;50.874;7.024;2023-12-28T02:22:38;1.90;;;0.80;;
30888;SDS011;51092;50.874;7.024;2023-12-28T02:23:45;0.73;;;0.60;;
30888;SDS011;51092;50.874;7.024;2023-12-28T02:24:57;1.50;;;0.65;;
30888;SDS011;51092;50.874;7.024;2023-12-28T02:26:00;1.02;;;0.80;;
30888;SDS011;51092;50.874;7.024;2023-12-28T02:27:03;0.70;;;0.70;;
30888;SDS011;51092;50.874;7.024;2023-12-28T02:28:04;1.42;;;0.90;;
30888;SDS011;51092;50.874;7.024;2023-12-28T02:29:07;1.30;;;0.90;;
30888;SDS011;51092;50.874;7.024;2023-12-28T02:30:10;1.70;;;0.90;;
30888;SDS011;51092;50.874;7.024;2023-12-28T02:32:39;1.13;;;0.90;;
30888;SDS011;51092;50.874;7.024;2023-12-28T02:33:49;0.75;;;0.73;;
30888;SDS011;51092;50.874;7.024;2023-12-28T02:34:55;1.63;;;1.00;;
30888;SDS011;51092;50.874;7.024;2023-12-28T02:36:04;1.83;;;0.75;;
30888;SDS011;51092;50.874;7.024;2023-12-28T02:37:10;1.40;;;0.97;;
30888;SDS011;51092;50.874;7.024;2023-12-28T02:38:16;1.00;;;0.90;;
30888;SDS011;51092;50.874;7.024;2023-12-28T02:39:19;1.05;;;0.80;;
30888;SDS011;51092;50.874;7.024;2023-12-28T02:40:24;1.05;;;0.88;;
30888;SDS011;51092;50.874;7.024;2023-12-28T02:41:28;1.20;;;1.00;;
30888;SDS011;51092;50.874;7.024;2023-12-28T02:42:32;1.33;;;1.02;;
30888;SDS011;51092;50.874;7.024;2023-12-28T02:43:34;2.00;;;1.00;;
30888;SDS011;51092;50.874;7.024;2023-12-28T02:44:36;1.35;;;1.10;;
30888;SDS011;51092;50.874;7.024;2023-12-28T02:45:38;1.73;;;0.80;;
30888;SDS011;51092;50.874;7.024;2023-12-28T02:46:40;2.83;;;1.05;;
30888;SDS011;51092;50.874;7.024;2023-12-28T02:47:42;1.27;;;0.93;;
30888;SDS011;51092;50.874;7.024;2023-12-28T02:48:44;1.35;;;1.02;;
30888;SDS011;51092;50.874;7.024;2023-12-28T02:49:47;1.55;;;0.82;;
30888;SDS011;51092;50.874;7.024;2023-12-28T02:50:48;1.67;;;0.90;;
30888;SDS011;51092;50.874;7.024;2023-12-28T02:51:51;2.20;;;1.08;;
30888;SDS011;51092;50.874;7.024;2023-12-28T02:52:52;1.30;;;1.00;;
30888;SDS011;51092;50.874;7.024;2023-12-28T02:53:54;3.08;;;1.40;;
30888;SDS011;51092;50.874;7.024;2023-12-28T02:54:56;1.10;;;1.00;;
30888;SDS011;51092;50.874;7.024;2023-12-28T02:55:59;1.98;;;1.10;;
30888;SDS011;51092;50.874;7.024;2023-12-28T02:57:01;1.02;;;0.93;;
30888;SDS011;51092;50.874;7.024;2023-12-28T02:58:03;1.80;;;1.00;;
30888;SDS011;51092;50.874;7.024;2023-12-28T02:59:04;2.03;;;1.10;;
30888;SDS011;51092;50.874;7.024;2023-12-28T03:00:07;2.42;;;1.30;;
30888;SDS011;51092;50.874;7.024;2023-12-28T03:01:09;1.80;;;1.15;;
30888;SDS011;51092;50.874;7.024;2023-12-28T03:02:12;2.58;;;1.23;;
30888;SDS011;51092;50.874;7.024;2023-12-28T03:03:13;2.80;;;1.25;;
30888;SDS011;51092;50.874;7.024;2023-12-28T03:04:15;1.83;;;1.23;;
30888;SDS011;51092;50.874;7.024;2023-12-28T03:05:17;1.42;;;1.20;;
30888;SDS011;51092;50.874;7.024;2023-12-28T03:06:20;1.80;;;1.30;;
30888;SDS011;51092;50.874;7.024;2023-12-28T03:07:21;2.10;;;1.48;;
30888;SDS011;51092;50.874;7.024;2023-12-28T03:08:24;2.35;;;1.40;;
30888;SDS011;51092;50.874;7.024;2023-12-28T03:09:25;1.40;;;1.10;;
30888;SDS011;51092;50.874;7.024;2023-12-28T03:10:28;1.88;;;1.27;;
30888;SDS011;51092;50.874;7.024;2023-12-28T03:11:31;3.03;;;1.10;;
30888;SDS011;51092;50.874;7.024;2023-12-28T03:12:33;2.00;;;1.30;;
30888;SDS011;51092;50.874;7.024;2023-12-28T03:13:34;1.80;;;1.17;;
30888;SDS011;51092;50.874;7.024;2023-12-28T03:14:36;3.58;;;1.30;;
30888;SDS011;51092;50.874;7.024;2023-12-28T03:15:38;2.45;;;1.20;;
30888;SDS011;51092;50.874;7.024;2023-12-28T03:16:40;2.50;;;1.30;;
30888;SDS011;51092;50.874;7.024;2023-12-28T03:17:42;3.50;;;1.60;;
30888;SDS011;51092;50.874;7.024;2023-12-28T03:18:44;3.30;;;1.63;;
30888;SDS011;51092;50.874;7.024;2023-12-28T03:19:46;2.47;;;1.40;;
30888;SDS011;51092;50.874;7.024;2023-12-28T03:20:47;2.47;;;1.30;;
30888;SDS011;51092;50.874;7.024;2023-12-28T03:21:50;2.50;;;1.50;;
30888;SDS011;51092;50.874;7.024;2023-12-28T03:22:51;3.15;;;1.17;;
30888;SDS011;51092;50.874;7.024;2023-12-28T03:23:54;1.50;;;1.20;;
30888;SDS011;51092;50.874;7.024;2023-12-28T03:24:55;2.33;;;1.00;;
30888;SDS011;51092;50.874;7.024;2023-12-28T03:25:57;1.60;;;1.23;;
30888;SDS011;51092;50.874;7.024;2023-12-28T03:27:03;3.33;;;1.30;;
30888;SDS011;51092;50.874;7.024;2023-12-28T03:28:05;1.95;;;1.27;;
30888;SDS011;51092;50.874;7.024;2023-12-28T03:29:07;1.98;;;1.30;;
30888;SDS011;51092;50.874;7.024;2023-12-28T03:30:09;1.70;;;1.30;;
30888;SDS011;51092;50.874;7.024;2023-12-28T03:31:12;2.70;;;1.45;;
30888;SDS011;51092;50.874;7.024;2023-12-28T03:32:14;1.45;;;1.23;;
30888;SDS011;51092;50.874;7.024;2023-12-28T03:33:16;2.22;;;1.30;;
30888;SDS011;51092;50.874;7.024;2023-12-28T03:34:18;2.03;;;1.30;;
30888;SDS011;51092;50.874;7.024;2023-12-28T03:35:20;2.30;;;1.30;;
30888;SDS011;51092;50.874;7.024;2023-12-28T03:36:22;1.90;;;1.33;;
30888;SDS011;51092;50.874;7.024;2023-12-28T03:37:23;2.10;;;1.23;;
30888;SDS011;51092;50.874;7.024;2023-12-28T03:38:26;2.28;;;1.45;;
30888;SDS011;51092;50.874;7.024;2023-12-28T03:39:28;2.55;;;1.40;;
30888;SDS011;51092;50.874;7.024;2023-12-28T03:40:29;2.20;;;1.55;;
30888;SDS011;51092;50.874;7.024;2023-12-28T03:41:31;2.03;;;1.55;;
30888;SDS011;51092;50.874;7.024;2023-12-28T03:42:35;2.72;;;1.27;;
30888;SDS011;51092;50.874;7.024;2023-12-28T03:43:39;2.80;;;1.65;;
30888;SDS011;51092;50.874;7.024;2023-12-28T03:44:40;2.10;;;1.40;;
30888;SDS011;51092;50.874;7.024;2023-12-28T03:45:42;2.20;;;1.50;;
30888;SDS011;51092;50.874;7.024;2023-12-28T03:46:44;3.03;;;1.37;;
30888;SDS011;51092;50.874;7.024;2023-12-28T03:47:46;2.50;;;1.40;;
30888;SDS011;51092;50.874;7.024;2023-12-28T03:48:48;1.90;;;1.48;;
30888;SDS011;51092;50.874;7.024;2023-12-28T03:49:50;3.08;;;1.95;;
30888;SDS011;51092;50.874;7.024;2023-12-28T03:50:52;2.22;;;1.40;;
30888;SDS011;51092;50.874;7.024;2023-12-28T03:51:54;2.20;;;1.40;;
30888;SDS011;51092;50.874;7.024;2023-12-28T03:52:56;2.03;;;1.30;;
30888;SDS011;51092;50.874;7.024;2023-12-28T03:53:59;2.63;;;1.30;;
30888;SDS011;51092;50.874;7.024;2023-12-28T03:55:00;2.10;;;1.40;;
30888;SDS011;51092;50.874;7.024;2023-12-28T03:56:03;1.95;;;1.38;;
30888;SDS011;51092;50.874;7.024;2023-12-28T03:57:04;3.20;;;1.52;;
30888;SDS011;51092;50.874;7.024;2023-12-28T03:58:08;2.20;;;1.40;;
30888;SDS011;51092;50.874;7.024;2023-12-28T03:59:10;2.05;;;1.35;;
30888;SDS011;51092;50.874;7.024;2023-12-28T04:00:12;2.03;;;1.60;;
30888;SDS011;51092;50.874;7.024;2023-12-28T04:01:16;2.33;;;1.45;;
30888;SDS011;51092;50.874;7.024;2023-12-28T04:02:19;2.63;;;1.50;;
30888;SDS011;51092;50.874;7.024;2023-12-28T04:03:20;2.67;;;1.58;;
30888;SDS011;51092;50.874;7.024;2023-12-28T04:04:23;2.72;;;1.58;;
30888;SDS011;51092;50.874;7.024;2023-12-28T04:05:24;1.77;;;1.45;;
30888;SDS011;51092;50.874;7.024;2023-12-28T04:06:26;2.08;;;1.63;;
30888;SDS011;51092;50.874;7.024;2023-12-28T04:07:28;3.83;;;1.65;;
30888;SDS011;51092;50.874;7.024;2023-12-28T04:08:30;1.70;;;1.30;;
30888;SDS011;51092;50.874;7.024;2023-12-28T04:09:32;2.00;;;1.45;;
30888;SDS011;51092;50.874;7.024;2023-12-28T04:10:35;2.20;;;1.80;;
30888;SDS011;51092;50.874;7.024;2023-12-28T04:11:38;2.15;;;1.55;;
30888;SDS011;51092;50.874;7.024;2023-12-28T04:12:40;2.30;;;1.40;;
30888;SDS011;51092;50.874;7.024;2023-12-28T04:13:43;2.67;;;1.40;;
30888;SDS011;51092;50.874;7.024;2023-12-28T04:14:45;2.90;;;1.45;;
30888;SDS011;51092;50.874;7.024;2023-12-28T04:15:47;2.88;;;1.73;;
30888;SDS011;51092;50.874;7.024;2023-12-28T04:16:50;2.83;;;1.27;;
30888;SDS011;51092;50.874;7.024;2023-12-28T04:17:51;3.13;;;1.50;;
30888;SDS011;51092;50.874;7.024;2023-12-28T04:18:53;2.90;;;1.58;;
30888;SDS011;51092;50.874;7.024;2023-12-28T04:19:55;3.10;;;1.40;;
30888;SDS011;51092;50.874;7.024;2023-12-28T04:20:57;2.65;;;1.65;;
30888;SDS011;51092;50.874;7.024;2023-12-28T04:21:59;3.33;;;1.73;;
30888;SDS011;51092;50.874;7.024;2023-12-28T04:23:01;2.40;;;1.50;;
30888;SDS011;51092;50.874;7.024;2023-12-28T04:24:03;2.38;;;1.42;;
30888;SDS011;51092;50.874;7.024;2023-12-28T04:25:06;2.15;;;1.50;;
30888;SDS011;51092;50.874;7.024;2023-12-28T04:26:08;2.15;;;1.80;;
30888;SDS011;51092;50.874;7.024;2023-12-28T04:27:10;2.55;;;1.70;;
30888;SDS011;51092;50.874;7.024;2023-12-28T04:28:13;1.88;;;1.40;;
30888;SDS011;51092;50.874;7.024;2023-12-28T04:29:17;2.17;;;1.58;;
30888;SDS011;51092;50.874;7.024;2023-12-28T04:30:18;2.90;;;1.60;;
30888;SDS011;51092;50.874;7.024;2023-12-28T04:31:20;2.53;;;1.52;;
30888;SDS011;51092;50.874;7.024;2023-12-28T04:32:22;3.35;;;1.55;;
30888;SDS011;51092;50.874;7.024;2023-12-28T04:33:26;1.80;;;1.40;;
30888;SDS011;51092;50.874;7.024;2023-12-28T04:34:27;3.78;;;1.48;;
30888;SDS011;51092;50.874;7.024;2023-12-28T04:35:30;4.75;;;2.03;;
30888;SDS011;51092;50.874;7.024;2023-12-28T04:36:31;2.63;;;1.77;;
30888;SDS011;51092;50.874;7.024;2023-12-28T04:37:34;1.83;;;1.67;;
30888;SDS011;51092;50.874;7.024;2023-12-28T04:38:35;3.80;;;1.77;;
30888;SDS011;51092;50.874;7.024;2023-12-28T04:39:39;2.60;;;1.60;;
30888;SDS011;51092;50.874;7.024;2023-12-28T04:40:41;3.33;;;1.70;;
30888;SDS011;51092;50.874;7.024;2023-12-28T04:41:42;2.22;;;1.73;;
30888;SDS011;51092;50.874;7.024;2023-12-28T04:42:45;3.22;;;1.80;;
30888;SDS011;51092;50.874;7.024;2023-12-28T04:43:46;2.95;;;2.03;;
30888;SDS011;51092;50.874;7.024;2023-12-28T04:44:50;2.88;;;1.83;;
30888;SDS011;51092;50.874;7.024;2023-12-28T04:45:52;2.72;;;1.90;;
30888;SDS011;51092;50.874;7.024;2023-12-28T04:46:54;3.63;;;1.95;;
30888;SDS011;51092;50.874;7.024;2023-12-28T04:47:56;3.47;;;1.90;;
30888;SDS011;51092;50.874;7.024;2023-12-28T04:48:59;4.37;;;1.97;;
30888;SDS011;51092;50.874;7.024;2023-12-28T04:50:00;4.45;;;1.95;;
30888;SDS011;51092;50.874;7.024;2023-12-28T04:51:04;2.45;;;1.77;;
30888;SDS011;51092;50.874;7.024;2023-12-28T04:52:05;2.90;;;1.60;;
30888;SDS011;51092;50.874;7.024;2023-12-28T04:53:08;3.58;;;1.90;;
30888;SDS011;51092;50.874;7.024;2023-12-28T04:54:09;2.88;;;1.98;;
30888;SDS011;51092;50.874;7.024;2023-12-28T04:55:11;6.20;;;1.88;;
30888;SDS011;51092;50.874;7.024;2023-12-28T04:56:17;3.08;;;1.70;;
30888;SDS011;51092;50.874;7.024;2023-12-28T04:57:19;2.90;;;1.85;;
30888;SDS011;51092;50.874;7.024;2023-12-28T04:58:21;3.72;;;2.05;;
30888;SDS011;51092;50.874;7.024;2023-12-28T04:59:23;4.20;;;1.92;;
30888;SDS011;51092;50.874;7.024;2023-12-28T05:00:27;4.82;;;2.00;;
30888;SDS011;51092;50.874;7.024;2023-12-28T05:01:28;3.70;;;1.65;;
30888;SDS011;51092;50.874;7.024;2023-12-28T05:02:32;3.03;;;1.70;;
30888;SDS011;51092;50.874;7.024;2023-12-28T05:03:33;2.72;;;1.90;;
30888;SDS011;51092;50.874;7.024;2023-12-28T05:04:36;3.83;;;2.00;;
30888;SDS011;51092;50.874;7.024;2023-12-28T05:05:38;4.20;;;1.80;;
30888;SDS011;51092;50.874;7.024;2023-12-28T05:06:40;2.97;;;1.75;;
30888;SDS011;51092;50.874;7.024;2023-12-28T05:07:42;3.30;;;1.80;;
30888;SDS011;51092;50.874;7.024;2023-12-28T05:08:44;4.60;;;2.22;;
30888;SDS011;51092;50.874;7.024;2023-12-28T05:09:46;4.95;;;1.85;;
30888;SDS011;51092;50.874;7.024;2023-12-28T05:10:48;3.67;;;2.03;;
30888;SDS011;51092;50.874;7.024;2023-12-28T05:11:50;3.72;;;1.90;;
30888;SDS011;51092;50.874;7.024;2023-12-28T05:12:52;3.50;;;1.85;;
30888;SDS011;51092;50.874;7.024;2023-12-28T05:13:53;4.57;;;2.35;;
30888;SDS011;51092;50.874;7.024;2023-12-28T05:14:56;4.32;;;1.90;;
30888;SDS011;51092;50.874;7.024;2023-12-28T05:15:59;3.50;;;1.83;;
30888;SDS011;51092;50.874;7.024;2023-12-28T05:17:02;3.70;;;1.67;;
30888;SDS011;51092;50.874;7.024;2023-12-28T05:18:04;3.17;;;1.90;;
30888;SDS011;51092;50.874;7.024;2023-12-28T05:19:08;3.83;;;1.90;;
30888;SDS011;51092;50.874;7.024;2023-12-28T05:20:10;2.38;;;1.90;;
30888;SDS011;51092;50.874;7.024;2023-12-28T05:21:12;2.35;;;1.90;;
30888;SDS011;51092;50.874;7.024;2023-12-28T05:22:15;4.43;;;2.10;;
30888;SDS011;51092;50.874;7.024;2023-12-28T05:23:16;4.07;;;1.98;;
30888;SDS011;51092;50.874;7.024;2023-12-28T05:24:19;3.13;;;2.00;;
30888;SDS011;51092;50.874;7.024;2023-12-28T05:25:20;2.88;;;1.90;;
30888;SDS011;51092;50.874;7.024;2023-12-28T05:26:22;4.85;;;1.98;;
30888;SDS011;51092;50.874;7.024;2023-12-28T05:27:24;3.55;;;2.33;;
30888;SDS011;51092;50.874;7.024;2023-12-28T05:28:26;5.85;;;1.83;;
30888;SDS011;51092;50.874;7.024;2023-12-28T05:29:28;3.13;;;1.70;;
30888;SDS011;51092;50.874;7.024;2023-12-28T05:30:30;3.05;;;1.90;;
30888;SDS011;51092;50.874;7.024;2023-12-28T05:31:34;4.20;;;2.08;;
30888;SDS011;51092;50.874;7.024;2023-12-28T05:32:35;3.17;;;1.83;;
30888;SDS011;51092;50.874;7.024;2023-12-28T05:33:36;3.25;;;2.15;;
30888;SDS011;51092;50.874;7.024;2023-12-28T05:34:39;3.53;;;2.10;;
30888;SDS011;51092;50.874;7.024;2023-12-28T05:35:40;4.22;;;2.00;;
30888;SDS011;51092;50.874;7.024;2023-12-28T05:36:43;2.72;;;1.70;;
30888;SDS011;51092;50.874;7.024;2023-12-28T05:37:46;4.30;;;2.13;;
30888;SDS011;51092;50.874;7.024;2023-12-28T05:38:48;4.30;;;1.93;;
30888;SDS011;51092;50.874;7.024;2023-12-28T05:39:50;6.80;;;1.88;;
30888;SDS011;51092;50.874;7.024;2023-12-28T05:40:52;3.37;;;2.00;;
30888;SDS011;51092;50.874;7.024;2023-12-28T05:41:54;4.25;;;2.30;;
30888;SDS011;51092;50.874;7.024;2023-12-28T05:42:56;6.33;;;2.00;;
30888;SDS011;51092;50.874;7.024;2023-12-28T05:43:57;3.92;;;1.90;;
30888;SDS011;51092;50.874;7.024;2023-12-28T05:45:00;3.25;;;1.90;;
30888;SDS011;51092;50.874;7.024;2023-12-28T05:46:01;3.40;;;1.90;;
30888;SDS011;51092;50.874;7.024;2023-12-28T05:47:04;3.78;;;2.08;;
30888;SDS011;51092;50.874;7.024;2023-12-28T05:48:07;2.72;;;2.05;;
30888;SDS011;51092;50.874;7.024;2023-12-28T05:49:08;4.07;;;2.00;;
30888;SDS011;51092;50.874;7.024;2023-12-28T05:50:11;3.28;;;2.05;;
30888;SDS011;51092;50.874;7.024;2023-12-28T05:51:12;3.42;;;1.85;;
30888;SDS011;51092;50.874;7.024;2023-12-28T05:52:15;5.57;;;2.25;;
30888;SDS011;51092;50.874;7.024;2023-12-28T05:53:19;3.83;;;2.00;;
30888;SDS011;51092;50.874;7.024;2023-12-28T05:54:21;3.70;;;2.10;;
30888;SDS011;51092;50.874;7.024;2023-12-28T05:55:23;4.15;;;1.90;;
30888;SDS011;51092;50.874;7.024;2023-12-28T05:56:26;3.35;;;1.92;;
30888;SDS011;51092;50.874;7.024;2023-12-28T05:57:27;4.40;;;1.92;;
30888;SDS011;51092;50.874;7.024;2023-12-28T05:58:31;6.35;;;2.13;;
30888;SDS011;51092;50.874;7.024;2023-12-28T05:59:36;4.68;;;2.10;;
30888;SDS011;51092;50.874;7.024;2023-12-28T06:00:39;4.15;;;1.77;;
30888;SDS011;51092;50.874;7.024;2023-12-28T06:01:43;3.60;;;1.88;;
30888;SDS011;51092;50.874;7.024;2023-12-28T06:02:45;3.15;;;1.92;;
30888;SDS011;51092;50.874;7.024;2023-12-28T06:03:51;3.47;;;1.63;;
30888;SDS011;51092;50.874;7.024;2023-12-28T06:04:53;3.75;;;2.03;;
30888;SDS011;51092;50.874;7.024;2023-12-28T06:05:55;4.80;;;2.17;;
30888;SDS011;51092;50.874;7.024;2023-12-28T06:06:57;4.25;;;2.20;;
30888;SDS011;51092;50.874;7.024;2023-12-28T06:07:59;5.70;;;2.37;;
30888;SDS011;51092;50.874;7.024;2023-12-28T06:09:01;6.97;;;2.23;;
30888;SDS011;51092;50.874;7.024;2023-12-28T06:10:03;5.28;;;2.13;;
30888;SDS011;51092;50.874;7.024;2023-12-28T06:11:06;3.85;;;1.92;;
30888;SDS011;51092;50.874;7.024;2023-12-28T06:12:08;3.88;;;1.85;;
30888;SDS011;51092;50.874;7.024;2023-12-28T06:13:10;6.35;;;2.90;;
30888;SDS011;51092;50.874;7.024;2023-12-28T06:14:12;4.35;;;1.90;;
30888;SDS011;51092;50.874;7.024;2023-12-28T06:15:14;3.95;;;1.73;;
30888;SDS011;51092;50.874;7.024;2023-12-28T06:16:15;3.90;;;1.90;;
30888;SDS011;51092;50.874;7.024;2023-12-28T06:17:19;3.53;;;1.90;;
30888;SDS011;51092;50.874;7.024;2023-12-28T06:18:22;2.80;;;1.85;;